Time;durP1;ratioP1;P1;durP2;ratioP2;P2;SDS_P1;SDS_P2;PMS_P1;PMS_P2;Temp;Humidity;BMP_temperature;BMP_pressure;BME280_temperature;BME280_humidity;BME280_pressure;Samples;Min_cycle;Max_cycle;Signal;HPM_P1;HPM_P2
2020/12/17 00:02:08;;;;;;;4.13;3.10;;;17.20;99.90;;;;;;5073495;28;20484;-74
2020/12/17 00:04:36;;;;;;;3.10;2.60;;;17.20;99.90;;;;;;5073120;28;20436;-74
2020/12/17 00:07:02;;;;;;;3.37;2.80;;;17.20;99.90;;;;;;5073488;28;20486;-75
2020/12/17 00:09:28;;;;;;;3.13;2.83;;;17.30;99.90;;;;;;5072870;28;20440;-74
2020/12/17 00:11:56;;;;;;;3.13;2.87;;;17.30;99.90;;;;;;5073207;28;20445;-74
2020/12/17 00:14:22;;;;;;;4.40;2.90;;;17.30;99.90;;;;;;5073448;28;20440;-74
2020/12/17 00:16:48;;;;;;;4.73;3.60;;;17.30;99.90;;;;;;5073313;28;20916;-75
2020/12/17 00:19:14;;;;;;;2.87;2.67;;;17.30;99.90;;;;;;5073246;28;20966;-75
2020/12/17 00:21:42;;;;;;;3.13;2.40;;;17.30;99.90;;;;;;5073246;28;20479;-75
2020/12/17 00:24:08;;;;;;;3.00;2.77;;;17.30;99.90;;;;;;5073372;28;20436;-75
2020/12/17 00:26:34;;;;;;;3.07;2.67;;;17.30;99.90;;;;;;5073258;28;20444;-74
2020/12/17 00:29:00;;;;;;;2.70;2.50;;;17.30;99.90;;;;;;5073374;28;20437;-74
2020/12/17 00:31:27;;;;;;;3.27;2.33;;;17.30;99.90;;;;;;5073290;28;20491;-74
2020/12/17 00:33:53;;;;;;;2.93;2.70;;;17.30;99.90;;;;;;5073376;28;20436;-75
2020/12/17 00:36:20;;;;;;;2.60;2.40;;;17.40;99.90;;;;;;5073147;28;20445;-74
2020/12/17 00:38:48;;;;;;;4.20;2.77;;;17.30;99.90;;;;;;5073249;28;20445;-75
2020/12/17 00:41:15;;;;;;;5.10;2.73;;;17.20;99.90;;;;;;5073248;28;20455;-74
2020/12/17 00:43:42;;;;;;;2.73;2.53;;;17.20;99.90;;;;;;5073239;28;20496;-75
2020/12/17 00:46:08;;;;;;;3.57;2.80;;;17.20;99.90;;;;;;5073109;28;20444;-74
2020/12/17 00:48:34;;;;;;;3.03;2.70;;;17.20;99.90;;;;;;5072975;28;20456;-75
2020/12/17 00:51:01;;;;;;;2.63;2.43;;;17.30;99.90;;;;;;5073026;28;20452;-74
2020/12/17 00:53:27;;;;;;;3.40;2.93;;;17.30;99.90;;;;;;5073050;28;20510;-74
2020/12/17 00:55:54;;;;;;;2.83;2.30;;;17.30;99.90;;;;;;5072829;28;20436;-74
2020/12/17 00:58:20;;;;;;;4.03;2.20;;;17.40;99.90;;;;;;5072887;28;20448;-74
2020/12/17 01:00:47;;;;;;;5.10;2.90;;;17.30;99.90;;;;;;5073139;28;20487;-74
2020/12/17 01:03:13;;;;;;;5.33;2.60;;;17.30;99.90;;;;;;5072983;28;20484;-78
2020/12/17 01:05:40;;;;;;;4.03;2.60;;;17.20;99.90;;;;;;5072744;28;20437;-75
2020/12/17 01:08:06;;;;;;;2.83;2.30;;;17.30;99.90;;;;;;5072906;28;20476;-75
2020/12/17 01:10:32;;;;;;;2.70;2.50;;;17.30;99.90;;;;;;5072899;28;20436;-75
2020/12/17 01:12:59;;;;;;;2.57;2.23;;;17.30;99.90;;;;;;5072836;28;20941;-75
2020/12/17 01:15:26;;;;;;;3.63;2.40;;;17.30;99.90;;;;;;5072753;28;20494;-75
2020/12/17 01:17:52;;;;;;;2.80;2.60;;;17.30;99.90;;;;;;5072641;28;20559;-75
2020/12/17 01:20:19;;;;;;;3.20;2.10;;;17.30;99.90;;;;;;5072835;28;20445;-75
2020/12/17 01:22:45;;;;;;;5.50;2.50;;;17.30;99.90;;;;;;5072641;28;20488;-75
2020/12/17 01:25:11;;;;;;;3.07;2.77;;;17.30;99.90;;;;;;5072665;28;20448;-75
2020/12/17 01:27:37;;;;;;;2.57;2.23;;;17.30;99.90;;;;;;5072722;28;20506;-75
2020/12/17 01:30:05;;;;;;;2.53;2.20;;;17.30;99.90;;;;;;5072635;28;20441;-75
2020/12/17 01:32:31;;;;;;;2.00;1.90;;;17.30;99.90;;;;;;5072738;28;20459;-75
2020/12/17 01:34:58;;;;;;;2.47;2.07;;;17.40;99.90;;;;;;5072882;28;20445;-75
2020/12/17 01:37:24;;;;;;;2.90;2.47;;;17.30;99.90;;;;;;5072613;28;20471;-75
2020/12/17 01:39:50;;;;;;;3.00;2.63;;;17.30;99.90;;;;;;5072543;28;20445;-75
2020/12/17 01:42:16;;;;;;;2.73;2.23;;;17.20;99.90;;;;;;5072665;28;20476;-75
2020/12/17 01:44:46;;;;;;;3.00;2.30;;;17.20;99.90;;;;;;5075144;28;20440;-75
2020/12/17 01:47:13;;;;;;;3.30;2.43;;;17.20;99.90;;;;;;5076195;28;20441;-75
2020/12/17 01:49:40;;;;;;;2.60;2.40;;;17.30;99.90;;;;;;5076214;28;20472;-74
2020/12/17 01:52:06;;;;;;;2.63;2.43;;;17.30;99.90;;;;;;5076146;28;20455;-77
2020/12/17 01:54:33;;;;;;;2.57;2.37;;;17.30;99.90;;;;;;5076144;28;20437;-75
2020/12/17 01:57:01;;;;;;;2.37;2.17;;;17.30;99.90;;;;;;5075965;28;20833;-75
2020/12/17 01:59:29;;;;;;;3.20;2.30;;;17.30;99.90;;;;;;5075790;28;20463;-74
2020/12/17 02:01:56;;;;;;;2.83;2.40;;;17.40;99.90;;;;;;5075944;28;20873;-75
2020/12/17 02:04:25;;;;;;;2.80;2.60;;;17.40;99.90;;;;;;5075901;28;20433;-74
2020/12/17 02:06:51;;;;;;;2.03;1.73;;;17.30;99.90;;;;;;5075778;28;20452;-74
2020/12/17 02:09:19;;;;;;;2.10;1.90;;;17.30;99.90;;;;;;5076029;28;20814;-75
2020/12/17 02:11:53;;;;;;;2.37;2.10;;;17.40;99.90;;;;;;5075743;28;20839;-75
2020/12/17 02:14:20;;;;;;;2.57;2.20;;;17.30;99.90;;;;;;5075270;28;20462;-75
2020/12/17 02:16:47;;;;;;;3.90;2.27;;;17.30;99.90;;;;;;5075658;28;20808;-75
2020/12/17 02:19:13;;;;;;;2.90;2.03;;;17.30;99.90;;;;;;5075569;28;20456;-75
2020/12/17 02:21:41;;;;;;;1.97;1.87;;;17.20;99.90;;;;;;5075472;28;20777;-74
2020/12/17 02:24:07;;;;;;;2.63;1.90;;;17.20;99.90;;;;;;5075077;28;20451;-75
2020/12/17 02:26:34;;;;;;;2.83;2.53;;;17.20;99.90;;;;;;5075329;28;20440;-75
2020/12/17 02:29:01;;;;;;;2.47;2.27;;;17.20;99.90;;;;;;5075497;28;20861;-78
2020/12/17 02:31:28;;;;;;;1.90;1.80;;;17.10;99.90;;;;;;5075417;28;20440;-74
2020/12/17 02:33:54;;;;;;;2.40;2.20;;;17.10;99.90;;;;;;5075387;28;20451;-75
2020/12/17 02:36:21;;;;;;;2.10;1.90;;;17.10;99.90;;;;;;5075328;28;20440;-77
2020/12/17 02:38:47;;;;;;;2.97;2.27;;;17.10;99.90;;;;;;5075321;28;20471;-75
2020/12/17 02:41:14;;;;;;;4.20;2.30;;;17.10;99.90;;;;;;5075152;28;20787;-74
2020/12/17 02:43:41;;;;;;;2.50;2.30;;;17.10;99.90;;;;;;5075034;28;20480;-75
2020/12/17 02:46:08;;;;;;;2.13;2.03;;;17.00;99.90;;;;;;5075066;28;20441;-74
2020/12/17 02:48:34;;;;;;;2.97;2.30;;;17.10;99.90;;;;;;5075115;28;20810;-77
2020/12/17 02:51:00;;;;;;;2.23;2.03;;;17.10;99.90;;;;;;5074892;28;20441;-78
2020/12/17 02:53:27;;;;;;;1.87;1.70;;;17.10;99.90;;;;;;5074918;28;20485;-75
2020/12/17 02:55:53;;;;;;;2.33;1.93;;;17.10;99.90;;;;;;5073686;28;20444;-75
2020/12/17 02:58:19;;;;;;;3.47;2.47;;;17.10;99.90;;;;;;5075071;28;20437;-75
2020/12/17 03:00:47;;;;;;;3.30;2.40;;;17.20;99.90;;;;;;5074864;28;20490;-74
2020/12/17 03:03:13;;;;;;;2.07;1.90;;;17.20;99.90;;;;;;5074158;28;20874;-74
2020/12/17 03:05:40;;;;;;;3.23;2.70;;;17.20;99.90;;;;;;5074603;28;20440;-75
2020/12/17 03:08:06;;;;;;;2.27;2.07;;;17.30;99.90;;;;;;5074819;28;20469;-74
2020/12/17 03:10:32;;;;;;;2.60;2.00;;;17.20;99.90;;;;;;5074786;28;20449;-75
2020/12/17 03:12:59;;;;;;;2.40;2.20;;;17.20;99.90;;;;;;5074480;28;20432;-75
2020/12/17 03:15:25;;;;;;;2.40;2.20;;;17.20;99.90;;;;;;5074435;28;20444;-75
2020/12/17 03:17:52;;;;;;;2.00;1.90;;;17.30;99.90;;;;;;5074511;28;20456;-75
2020/12/17 03:20:18;;;;;;;2.60;2.10;;;17.20;99.90;;;;;;5074676;28;20436;-75
2020/12/17 03:22:44;;;;;;;2.50;2.30;;;17.20;99.90;;;;;;5074041;28;20480;-75
2020/12/17 03:25:11;;;;;;;3.03;2.00;;;17.20;99.90;;;;;;5073863;28;20436;-75
2020/12/17 03:27:37;;;;;;;2.43;2.10;;;17.30;99.90;;;;;;5074358;28;20437;-75
2020/12/17 03:30:05;;;;;;;2.13;1.87;;;17.30;99.90;;;;;;5074309;28;20437;-75
2020/12/17 03:32:31;;;;;;;2.77;2.00;;;17.30;99.90;;;;;;5074186;28;20444;-75
2020/12/17 03:34:59;;;;;;;2.70;2.50;;;17.30;99.90;;;;;;5074197;28;20818;-75
2020/12/17 03:37:25;;;;;;;2.73;2.40;;;17.30;99.90;;;;;;5074174;28;20843;-74
2020/12/17 03:39:51;;;;;;;2.70;2.50;;;17.30;99.90;;;;;;5074142;28;20451;-75
2020/12/17 03:42:18;;;;;;;1.90;1.60;;;17.30;99.90;;;;;;5073983;28;20480;-75
2020/12/17 03:44:44;;;;;;;2.53;2.30;;;17.30;99.90;;;;;;5073660;28;20489;-75
2020/12/17 03:47:11;;;;;;;5.90;4.53;;;17.30;99.90;;;;;;5073836;28;20502;-75
2020/12/17 03:49:37;;;;;;;1.83;1.73;;;17.30;99.90;;;;;;5073854;28;20461;-75
2020/12/17 03:52:05;;;;;;;1.87;1.63;;;17.40;99.90;;;;;;5074007;28;21008;-75
2020/12/17 03:54:31;;;;;;;2.47;2.10;;;17.50;99.90;;;;;;5073755;28;20437;-78
2020/12/17 03:56:57;;;;;;;3.00;2.10;;;17.50;99.90;;;;;;5073514;28;20476;-75
2020/12/17 03:59:23;;;;;;;2.90;2.00;;;17.50;99.90;;;;;;5073727;28;20919;-75
2020/12/17 04:01:50;;;;;;;2.80;2.53;;;17.50;99.90;;;;;;5073578;28;20763;-77
2020/12/17 04:04:16;;;;;;;2.13;1.93;;;17.50;99.90;;;;;;5073745;28;20528;-75
2020/12/17 04:06:42;;;;;;;2.30;2.10;;;17.50;99.90;;;;;;5073198;28;20793;-75
2020/12/17 04:09:09;;;;;;;2.53;2.23;;;17.50;99.90;;;;;;5073524;28;20525;-75
2020/12/17 04:11:35;;;;;;;2.23;2.03;;;17.40;99.90;;;;;;5073550;28;20433;-77
2020/12/17 04:14:02;;;;;;;4.03;2.20;;;17.50;99.90;;;;;;5073519;28;20447;-75
2020/12/17 04:16:28;;;;;;;2.20;2.00;;;17.40;99.90;;;;;;5073357;28;20441;-74
2020/12/17 04:18:54;;;;;;;2.20;2.00;;;17.40;99.90;;;;;;5073312;28;20522;-74
2020/12/17 04:21:20;;;;;;;2.70;2.23;;;17.50;99.90;;;;;;5073482;28;20432;-75
2020/12/17 04:23:47;;;;;;;2.40;2.20;;;17.50;99.90;;;;;;5073247;28;20550;-75
2020/12/17 04:26:14;;;;;;;2.57;2.30;;;17.40;99.90;;;;;;5073280;28;20452;-74
2020/12/17 04:28:40;;;;;;;2.63;2.20;;;17.30;99.90;;;;;;5073587;28;20554;-75
2020/12/17 04:31:07;;;;;;;2.77;2.40;;;17.20;99.90;;;;;;5073457;28;20444;-75
2020/12/17 04:33:34;;;;;;;3.23;2.60;;;17.30;99.90;;;;;;5073225;28;20791;-74
2020/12/17 04:36:00;;;;;;;2.90;2.57;;;17.30;99.90;;;;;;5073259;28;20440;-75
2020/12/17 04:38:27;;;;;;;2.97;2.43;;;17.20;99.90;;;;;;5072688;28;20440;-76
2020/12/17 04:40:53;;;;;;;2.57;2.37;;;17.20;99.90;;;;;;5073383;28;21037;-75
2020/12/17 04:43:21;;;;;;;2.60;2.40;;;17.30;99.90;;;;;;5073363;28;20487;-75
2020/12/17 04:45:47;;;;;;;2.53;2.33;;;17.30;99.90;;;;;;5073168;28;20445;-75
2020/12/17 04:48:17;;;;;;;2.97;2.30;;;17.30;99.90;;;;;;5073098;28;20461;-75
2020/12/17 04:50:44;;;;;;;3.57;2.07;;;17.30;99.90;;;;;;5073156;28;20459;-75
2020/12/17 04:53:14;;;;;;;2.37;2.17;;;17.30;99.90;;;;;;5073127;28;20792;-75
2020/12/17 04:55:42;;;;;;;2.60;2.40;;;17.30;99.90;;;;;;5073302;28;20439;-75
2020/12/17 04:58:10;;;;;;;2.50;2.30;;;17.30;99.90;;;;;;5073042;28;20473;-75
2020/12/17 05:00:40;;;;;;;2.30;2.10;;;17.30;99.90;;;;;;5073110;28;20441;-74
2020/12/17 05:03:12;;;;;;;3.43;2.47;;;17.30;99.90;;;;;;5072664;28;20476;-75
2020/12/17 05:05:38;;;;;;;6.00;2.77;;;17.30;99.90;;;;;;5072533;28;20498;-75
2020/12/17 05:08:04;;;;;;;3.30;2.53;;;17.30;99.90;;;;;;5073146;28;20445;-75
2020/12/17 05:10:31;;;;;;;4.07;2.57;;;17.20;99.90;;;;;;5072994;28;20441;-74
2020/12/17 05:12:57;;;;;;;2.50;2.30;;;17.20;99.90;;;;;;5072920;28;20444;-75
2020/12/17 05:15:24;;;;;;;2.20;2.00;;;17.30;99.90;;;;;;5072945;28;20502;-75
2020/12/17 05:17:51;;;;;;;1.90;1.70;;;17.20;99.90;;;;;;5072732;28;20471;-75
2020/12/17 05:20:18;;;;;;;5.27;2.43;;;17.20;99.90;;;;;;5076532;28;20440;-75
2020/12/17 05:22:45;;;;;;;2.27;2.00;;;17.20;99.90;;;;;;5076262;28;20833;-75
2020/12/17 05:25:12;;;;;;;2.43;2.20;;;17.30;99.90;;;;;;5076326;28;20440;-75
2020/12/17 05:27:41;;;;;;;2.63;2.43;;;17.30;99.90;;;;;;5076620;28;20444;-75
2020/12/17 05:30:07;;;;;;;2.10;2.00;;;17.30;99.90;;;;;;5076474;28;20440;-75
2020/12/17 05:32:33;;;;;;;3.13;2.70;;;17.30;99.90;;;;;;5076371;28;20965;-75
2020/12/17 05:35:03;;;;;;;2.20;2.00;;;17.30;99.90;;;;;;5076380;28;20465;-77
2020/12/17 05:37:31;;;;;;;2.70;1.97;;;17.30;99.90;;;;;;5076672;28;20514;-74
2020/12/17 05:40:00;;;;;;;2.73;2.50;;;17.30;99.90;;;;;;5076114;28;20440;-75
2020/12/17 05:42:27;;;;;;;2.70;2.50;;;17.40;99.90;;;;;;5076201;28;20484;-74
2020/12/17 05:44:53;;;;;;;3.50;2.83;;;17.40;99.90;;;;;;5076187;28;20444;-74
2020/12/17 05:47:19;;;;;;;2.73;2.53;;;17.40;99.90;;;;;;5076127;28;20454;-75
2020/12/17 05:49:46;;;;;;;2.50;2.30;;;17.40;99.90;;;;;;5076262;28;20440;-75
2020/12/17 05:52:14;;;;;;;2.10;2.00;;;17.40;99.90;;;;;;5076236;28;20496;-75
2020/12/17 05:54:43;;;;;;;2.37;2.17;;;17.30;99.90;;;;;;5076208;28;20460;-74
2020/12/17 05:57:12;;;;;;;4.13;2.43;;;17.40;99.90;;;;;;5076008;28;20476;-76
2020/12/17 05:59:38;;;;;;;2.50;2.30;;;17.40;99.90;;;;;;5076066;28;20436;-75
2020/12/17 06:02:25;;;;;;;3.10;2.07;;;17.40;99.90;;;;;;5075712;28;20447;-74
2020/12/17 06:05:02;;;;;;;2.27;1.80;;;17.40;99.90;;;;;;5075818;28;20444;-75
2020/12/17 06:07:32;;;;;;;4.17;2.67;;;17.40;99.90;;;;;;5075929;28;20452;-75
2020/12/17 06:10:05;;;;;;;2.73;2.53;;;17.30;99.90;;;;;;5075974;28;20448;-76
2020/12/17 06:12:34;;;;;;;2.53;2.33;;;17.30;99.90;;;;;;5075739;28;20944;-75
2020/12/17 06:15:02;;;;;;;2.37;2.10;;;17.40;99.90;;;;;;5075845;28;20439;-76
2020/12/17 06:17:37;;;;;;;3.10;2.27;;;17.30;99.90;;;;;;5075789;28;20436;-75
2020/12/17 06:20:05;;;;;;;2.87;2.07;;;17.30;99.90;;;;;;5075678;28;20463;-75
2020/12/17 06:22:33;;;;;;;3.23;2.30;;;17.20;99.90;;;;;;5075543;28;20476;-75
2020/12/17 06:25:00;;;;;;;4.57;2.67;;;17.10;99.90;;;;;;5075453;28;20452;-75
2020/12/17 06:27:31;;;;;;;2.90;2.40;;;17.10;99.90;;;;;;5075469;28;20452;-75
2020/12/17 06:30:04;;;;;;;3.53;2.70;;;17.00;99.90;;;;;;5075228;28;20514;-74
2020/12/17 06:32:33;;;;;;;2.70;2.50;;;16.90;99.90;;;;;;5075604;28;20435;-75
2020/12/17 06:35:02;;;;;;;2.27;2.00;;;16.90;99.90;;;;;;5075278;28;20940;-74
2020/12/17 06:37:30;;;;;;;6.23;3.83;;;16.90;99.90;;;;;;5075404;28;20443;-75
2020/12/17 06:39:57;;;;;;;3.80;3.20;;;16.90;99.90;;;;;;5075570;28;20803;-75
2020/12/17 06:42:34;;;;;;;2.73;2.50;;;16.90;99.90;;;;;;5075100;28;20484;-75
2020/12/17 06:45:00;;;;;;;3.33;3.03;;;16.80;99.90;;;;;;5075278;28;20440;-75
2020/12/17 06:47:28;;;;;;;3.55;3.22;;;16.60;99.90;;;;;;5075028;28;20205;-75
2020/12/17 06:49:54;;;;;;;3.77;2.70;;;16.50;99.90;;;;;;5075252;28;20217;-75
2020/12/17 06:52:21;;;;;;;5.00;2.70;;;16.40;99.90;;;;;;5075149;28;20852;-74
2020/12/17 06:54:47;;;;;;;5.57;2.47;;;16.40;99.90;;;;;;5075051;28;20491;-74
2020/12/17 06:57:16;;;;;;;2.88;2.50;;;16.40;99.90;;;;;;5074931;28;20479;-75
2020/12/17 06:59:44;;;;;;;3.08;2.60;;;16.40;99.90;;;;;;5075089;28;20221;-74
2020/12/17 07:02:15;;;;;;;3.63;2.77;;;16.30;99.90;;;;;;5074842;28;20197;-74
2020/12/17 07:04:45;;;;;;;3.50;2.80;;;16.30;99.90;;;;;;5074862;28;20436;-74
2020/12/17 07:07:16;;;;;;;2.83;2.33;;;16.30;99.90;;;;;;5074861;28;20672;-74
2020/12/17 07:09:44;;;;;;;3.03;2.73;;;16.30;99.90;;;;;;5074699;28;20939;-77
2020/12/17 07:12:12;;;;;;;4.17;3.40;;;16.20;99.90;;;;;;5076980;28;20857;-74
2020/12/17 07:14:41;;;;;;;2.60;2.40;;;16.20;99.90;;;;;;5094588;28;20443;-75
2020/12/17 07:17:09;;;;;;;8.23;3.47;;;16.10;99.90;;;;;;5094644;28;20444;-76
2020/12/17 07:19:40;;;;;;;3.10;2.85;;;16.00;99.90;;;;;;5093312;28;20194;-76
2020/12/17 07:22:07;;;;;;;4.67;3.97;;;15.90;99.90;;;;;;5093964;28;20198;-76
2020/12/17 07:24:35;;;;;;;4.45;3.55;;;15.80;99.90;;;;;;5094601;28;20530;-76
2020/12/17 07:27:04;;;;;;;2.90;2.60;;;15.70;99.90;;;;;;5094685;28;20292;-76
2020/12/17 07:29:43;;;;;;;2.90;2.60;;;15.60;99.90;;;;;;5094635;28;20190;-76
2020/12/17 07:32:23;;;;;;;4.88;4.32;;;15.60;99.90;;;;;;5094558;28;20212;-75
2020/12/17 07:34:50;;;;;;;7.10;4.20;;;15.40;99.90;;;;;;5094405;28;20203;-76
2020/12/17 07:37:41;;;;;;;5.75;4.00;;;15.40;99.90;;;;;;5094446;28;20200;-76
2020/12/17 07:40:28;;;;;;;6.70;4.05;;;15.30;99.90;;;;;;5085709;28;20205;-75
2020/12/17 07:42:59;;;;;;;3.38;3.08;;;15.30;99.90;;;;;;5093420;28;20229;-77
2020/12/17 07:45:51;;;;;;;5.90;3.95;;;15.20;99.90;;;;;;5094246;28;20189;-78
2020/12/17 07:48:40;;;;;;;4.00;3.53;;;15.20;99.90;;;;;;5094264;28;20569;-76
2020/12/17 07:51:09;;;;;;;4.65;3.30;;;15.30;99.90;;;;;;5094043;28;20193;-77
2020/12/17 07:53:36;;;;;;;3.60;3.30;;;15.40;99.90;;;;;;5093895;28;20197;-77
2020/12/17 07:56:03;;;;;;;6.20;4.18;;;15.50;99.90;;;;;;5093779;28;20244;-77
2020/12/17 07:58:29;;;;;;;5.72;3.00;;;15.50;99.90;;;;;;5094064;28;20193;-76
2020/12/17 08:00:57;;;;;;;4.65;4.22;;;15.50;99.90;;;;;;5094173;28;20194;-78
2020/12/17 08:03:24;;;;;;;4.03;3.63;;;15.50;99.90;;;;;;5093808;28;20706;-76
2020/12/17 08:05:52;;;;;;;4.47;3.83;;;15.70;99.90;;;;;;5093900;28;20189;-78
2020/12/17 08:08:20;;;;;;;4.45;3.05;;;15.70;99.90;;;;;;5094007;28;20189;-77
2020/12/17 08:10:47;;;;;;;4.32;3.90;;;15.70;99.90;;;;;;5093886;28;20204;-76
2020/12/17 08:13:15;;;;;;;3.70;2.65;;;15.60;99.90;;;;;;5093639;28;20644;-77
2020/12/17 08:15:42;;;;;;;4.05;3.47;;;15.60;99.90;;;;;;5093095;28;20197;-77
2020/12/17 08:18:09;;;;;;;3.70;2.90;;;15.70;99.90;;;;;;5093628;28;20209;-77
2020/12/17 08:20:36;;;;;;;3.95;3.45;;;15.70;99.90;;;;;;5093569;28;20201;-77
2020/12/17 08:23:02;;;;;;;3.00;2.70;;;15.90;99.90;;;;;;5093678;28;20229;-77
2020/12/17 08:25:30;;;;;;;4.78;3.15;;;16.00;99.90;;;;;;5093532;28;20193;-76
2020/12/17 08:27:56;;;;;;;4.97;4.40;;;15.90;99.90;;;;;;5093457;28;20205;-78
2020/12/17 08:30:23;;;;;;;3.35;3.15;;;16.00;99.90;;;;;;5092809;28;20266;-78
2020/12/17 08:32:50;;;;;;;4.68;3.40;;;15.90;99.90;;;;;;5091321;28;20664;-77
2020/12/17 08:35:22;;;;;;;4.35;3.65;;;15.80;99.90;;;;;;5092799;28;20194;-79
2020/12/17 08:37:50;;;;;;;3.00;2.70;;;15.60;99.90;;;;;;5093452;28;20194;-80
2020/12/17 08:40:20;;;;;;;4.45;3.38;;;15.50;99.90;;;;;;5093308;28;20575;-77
2020/12/17 08:42:50;;;;;;;3.25;3.05;;;15.50;99.90;;;;;;5093162;28;20224;-79
2020/12/17 08:45:19;;;;;;;3.75;2.95;;;15.60;99.90;;;;;;5093101;28;20194;-79
2020/12/17 08:47:50;;;;;;;3.10;2.55;;;15.70;99.90;;;;;;5091570;28;20289;-80
2020/12/17 08:50:17;;;;;;;2.97;2.78;;;15.60;99.90;;;;;;5092094;28;20198;-79
2020/12/17 08:52:44;;;;;;;2.75;2.55;;;15.70;99.90;;;;;;5094450;28;20594;-79
2020/12/17 08:55:11;;;;;;;3.85;3.55;;;15.70;99.90;;;;;;5097335;28;20338;-79
2020/12/17 08:57:38;;;;;;;5.40;2.65;;;15.80;99.90;;;;;;5097113;28;20221;-79
2020/12/17 09:00:05;;;;;;;3.00;2.78;;;15.80;99.90;;;;;;5097346;28;20254;-79
2020/12/17 09:02:32;;;;;;;3.38;2.95;;;15.90;99.90;;;;;;5097237;28;20680;-79
2020/12/17 09:04:59;;;;;;;2.42;2.25;;;15.90;99.90;;;;;;5097323;28;20255;-79
2020/12/17 09:07:26;;;;;;;2.97;2.50;;;15.90;99.90;;;;;;5097443;28;20549;-78
2020/12/17 09:09:53;;;;;;;2.67;2.47;;;15.90;99.90;;;;;;5097290;28;20194;-79
2020/12/17 09:12:29;;;;;;;3.33;2.08;;;15.90;99.90;;;;;;5097327;28;20345;-79
2020/12/17 09:15:03;;;;;;;4.45;2.42;;;16.00;99.90;;;;;;5097295;28;20197;-78
2020/12/17 09:17:29;;;;;;;2.67;2.47;;;16.00;99.90;;;;;;5097119;28;20539;-80
2020/12/17 09:19:55;;;;;;;3.00;2.20;;;16.00;99.90;;;;;;5096865;28;20231;-78
2020/12/17 09:22:23;;;;;;;3.85;2.00;;;16.10;99.90;;;;;;5097045;28;20200;-79
2020/12/17 09:24:54;;;;;;;2.38;2.13;;;16.10;99.90;;;;;;5097013;28;20550;-78
2020/12/17 09:27:23;;;;;;;2.50;2.17;;;16.20;99.90;;;;;;5097135;28;20331;-79
2020/12/17 09:30:06;;;;;;;3.25;2.10;;;16.30;99.90;;;;;;5096951;28;20454;-79
2020/12/17 09:32:35;;;;;;;2.20;2.00;;;16.40;99.90;;;;;;5096865;28;20197;-79
2020/12/17 09:35:06;;;;;;;3.17;2.10;;;16.40;99.90;;;;;;5096757;28;20436;-78
2020/12/17 09:37:33;;;;;;;2.00;1.90;;;16.40;99.90;;;;;;5094546;28;20451;-79
2020/12/17 09:39:59;;;;;;;2.17;1.97;;;16.40;99.90;;;;;;5095881;28;20442;-78
2020/12/17 09:42:26;;;;;;;5.43;1.70;;;16.40;99.90;;;;;;5091328;28;21061;-79
2020/12/17 09:44:52;;;;;;;2.50;2.17;;;16.40;99.90;;;;;;5095851;28;20447;-81
2020/12/17 09:47:39;;;;;;;3.63;2.10;;;16.30;99.90;;;;;;5095892;28;20467;-79
2020/12/17 09:50:10;;;;;;;2.10;1.90;;;16.30;99.90;;;;;;5091070;28;20446;-79
2020/12/17 09:52:37;;;;;;;1.90;1.40;;;16.30;99.90;;;;;;5095895;28;20201;-79
2020/12/17 09:55:03;;;;;;;2.75;2.20;;;16.20;99.90;;;;;;5094917;28;20775;-79
2020/12/17 09:57:38;;;;;;;2.67;1.90;;;16.20;99.90;;;;;;5095457;28;20881;-77
2020/12/17 10:00:07;;;;;;;3.05;2.17;;;16.20;99.90;;;;;;5095776;28;20197;-77
2020/12/17 10:02:33;;;;;;;1.70;1.60;;;16.20;99.90;;;;;;5095074;28;20341;-78
2020/12/17 10:05:00;;;;;;;2.80;1.70;;;16.20;99.90;;;;;;5094400;28;20440;-78
2020/12/17 10:07:26;;;;;;;2.00;1.50;;;16.20;99.90;;;;;;5094942;28;20807;-77
2020/12/17 10:09:52;;;;;;;2.33;1.95;;;16.10;99.90;;;;;;5095056;28;20466;-77
2020/12/17 10:12:19;;;;;;;1.90;1.63;;;16.00;99.90;;;;;;5094863;28;20193;-77
2020/12/17 10:14:46;;;;;;;2.47;1.60;;;16.10;99.90;;;;;;5094694;28;20194;-77
2020/12/17 10:17:12;;;;;;;2.20;1.70;;;16.10;99.90;;;;;;5095292;28;20214;-77
2020/12/17 10:19:38;;;;;;;5.60;3.35;;;16.10;99.90;;;;;;5095343;28;20201;-77
2020/12/17 10:22:04;;;;;;;3.30;2.65;;;16.10;99.90;;;;;;5095162;28;20197;-77
2020/12/17 10:24:31;;;;;;;4.03;1.85;;;16.00;99.90;;;;;;5094986;28;20712;-77
2020/12/17 10:26:57;;;;;;;2.20;1.65;;;16.00;99.90;;;;;;5095217;28;20672;-76
2020/12/17 10:29:23;;;;;;;1.90;1.40;;;16.00;99.90;;;;;;5095209;28;20194;-77
2020/12/17 10:31:50;;;;;;;3.65;2.10;;;15.80;99.90;;;;;;5095045;28;20200;-77
2020/12/17 10:34:17;;;;;;;2.33;1.98;;;15.80;99.90;;;;;;5094918;28;20569;-77
2020/12/17 10:36:45;;;;;;;3.93;2.57;;;15.60;99.90;;;;;;5095008;28;20198;-77
2020/12/17 10:39:12;;;;;;;2.30;1.97;;;15.60;99.90;;;;;;5094853;28;20440;-76
2020/12/17 10:41:39;;;;;;;5.55;4.97;;;15.50;99.90;;;;;;5095083;28;20444;-77
2020/12/17 10:44:06;;;;;;;4.80;4.18;;;15.60;99.90;;;;;;5094954;28;20710;-76
2020/12/17 10:46:35;;;;;;;2.80;2.33;;;15.50;99.90;;;;;;5094709;28;20197;-77
2020/12/17 10:49:04;;;;;;;3.08;2.10;;;15.50;99.90;;;;;;5094837;28;20480;-76
2020/12/17 10:51:30;;;;;;;2.38;2.17;;;15.50;99.90;;;;;;5094749;28;20193;-76
2020/12/17 10:53:56;;;;;;;2.47;2.28;;;15.60;99.90;;;;;;5094913;28;20200;-76
2020/12/17 10:56:23;;;;;;;2.42;2.08;;;15.70;99.90;;;;;;5094457;28;20231;-77
2020/12/17 10:58:50;;;;;;;3.33;2.05;;;15.70;99.90;;;;;;5094693;28;20197;-77
2020/12/17 11:01:20;;;;;;;1.90;1.80;;;15.70;99.90;;;;;;5094689;28;20230;-76
2020/12/17 11:03:46;;;;;;;2.45;1.98;;;15.70;99.90;;;;;;5093848;28;20240;-78
2020/12/17 11:06:15;;;;;;;1.73;1.63;;;15.70;99.90;;;;;;5094562;28;20197;-78
2020/12/17 11:08:42;;;;;;;2.55;1.52;;;15.70;99.90;;;;;;5094534;28;20193;-77
2020/12/17 11:11:08;;;;;;;2.70;1.93;;;15.80;99.90;;;;;;5094387;28;20206;-77
2020/12/17 11:13:34;;;;;;;3.53;2.08;;;15.70;99.90;;;;;;5094232;28;20444;-77
2020/12/17 11:16:01;;;;;;;3.95;2.20;;;15.60;99.90;;;;;;5093056;28;20194;-76
2020/12/17 11:18:27;;;;;;;5.95;2.30;;;15.60;99.90;;;;;;5094198;28;20216;-77
2020/12/17 11:20:53;;;;;;;2.53;1.67;;;15.60;99.90;;;;;;5094229;28;20196;-77
2020/12/17 11:23:20;;;;;;;1.80;1.55;;;15.60;99.90;;;;;;5093971;28;20769;-77
2020/12/17 11:25:47;;;;;;;4.22;1.40;;;15.60;99.90;;;;;;5094012;28;20194;-76
2020/12/17 11:28:13;;;;;;;2.67;1.33;;;15.60;99.90;;;;;;5094092;28;20190;-76
2020/12/17 11:30:39;;;;;;;2.45;1.73;;;15.70;99.90;;;;;;5094012;28;20198;-76
2020/12/17 11:33:05;;;;;;;2.70;1.50;;;15.70;99.90;;;;;;5093886;28;20202;-79
2020/12/17 11:35:32;;;;;;;4.03;1.98;;;15.70;99.90;;;;;;5093629;28;20194;-81
2020/12/17 11:37:59;;;;;;;3.35;1.80;;;15.70;99.90;;;;;;5093618;28;20205;-80
2020/12/17 11:40:26;;;;;;;1.98;1.52;;;15.60;99.90;;;;;;5093946;28;20190;-80
2020/12/17 11:42:54;;;;;;;1.90;1.50;;;15.50;99.90;;;;;;5093627;28;20217;-80
2020/12/17 11:45:20;;;;;;;1.65;1.55;;;15.30;99.90;;;;;;5093625;28;20200;-79
2020/12/17 11:47:47;;;;;;;1.98;1.52;;;15.20;99.90;;;;;;5093472;28;20218;-80
2020/12/17 11:50:13;;;;;;;4.05;1.67;;;14.90;99.90;;;;;;5093774;28;20657;-79
2020/12/17 11:52:39;;;;;;;3.17;1.60;;;14.90;99.90;;;;;;5093599;28;20197;-80
2020/12/17 11:55:08;;;;;;;1.58;1.35;;;14.80;99.90;;;;;;5093330;28;20201;-80
2020/12/17 11:57:35;;;;;;;2.90;1.55;;;14.60;99.90;;;;;;5093438;28;20589;-79
2020/12/17 12:00:03;;;;;;;3.10;1.67;;;14.50;99.90;;;;;;5093354;28;20201;-80
2020/12/17 12:02:29;;;;;;;3.90;1.65;;;14.50;99.90;;;;;;5093160;28;20204;-80
2020/12/17 12:04:55;;;;;;;3.55;1.90;;;14.40;99.90;;;;;;5092836;28;20194;-80
2020/12/17 12:07:24;;;;;;;2.65;1.80;;;14.30;99.90;;;;;;5093157;28;20200;-80
2020/12/17 12:09:50;;;;;;;1.63;1.30;;;14.30;99.90;;;;;;5093216;28;20204;-81
2020/12/17 12:12:16;;;;;;;1.95;1.55;;;14.40;99.90;;;;;;5093182;28;20194;-80
2020/12/17 12:14:43;;;;;;;5.53;1.80;;;14.50;99.90;;;;;;5093147;28;20645;-80
2020/12/17 12:17:10;;;;;;;5.05;1.85;;;14.40;99.90;;;;;;5093034;28;20472;-80
2020/12/17 12:19:36;;;;;;;5.75;1.50;;;14.20;99.90;;;;;;5092979;28;20227;-81
2020/12/17 12:22:03;;;;;;;7.63;1.80;;;14.20;99.90;;;;;;5092996;28;20194;-80
2020/12/17 12:24:29;;;;;;;4.65;2.00;;;14.30;99.90;;;;;;5092983;28;20227;-82
2020/12/17 12:26:57;;;;;;;2.47;1.40;;;14.10;99.90;;;;;;5092863;28;20554;-82
2020/12/17 12:29:24;;;;;;;2.75;1.52;;;13.90;99.90;;;;;;5092809;28;20194;-80
2020/12/17 12:31:51;;;;;;;2.03;1.75;;;13.90;99.90;;;;;;5092789;28;20197;-80
2020/12/17 12:34:17;;;;;;;2.42;1.63;;;13.90;99.90;;;;;;5093019;28;20246;-82
2020/12/17 12:36:48;;;;;;;1.40;1.25;;;14.10;99.90;;;;;;5092922;28;20599;-82
2020/12/17 12:39:14;;;;;;;5.25;1.85;;;14.20;99.90;;;;;;5092737;28;20189;-80
2020/12/17 12:41:41;;;;;;;2.03;1.77;;;14.30;99.90;;;;;;5092565;28;20204;-81
2020/12/17 12:44:07;;;;;;;7.28;1.88;;;14.40;99.90;;;;;;5092231;28;20228;-81
2020/12/17 12:46:33;;;;;;;2.75;1.30;;;14.30;99.90;;;;;;5092541;28;20190;-81
2020/12/17 12:49:01;;;;;;;1.85;1.30;;;14.30;99.90;;;;;;5092792;28;20613;-81
2020/12/17 12:51:28;;;;;;;2.10;1.48;;;14.40;99.90;;;;;;5092762;28;20197;-80